sensor_id;sensor_type;location;lat;lon;timestamp;pressure;altitude;pressure_sealevel;temperature
69785;BMP280;14177;51.520;6.764;2023-07-29T00:01:40;100483.88;;;19.92
69785;BMP280;14177;51.520;6.764;2023-07-29T00:04:09;100483.28;;;19.88
69785;BMP280;14177;51.520;6.764;2023-07-29T00:06:36;100473.06;;;19.84
69785;BMP280;14177;51.520;6.764;2023-07-29T00:09:04;100477.59;;;19.82
69785;BMP280;14177;51.520;6.764;2023-07-29T00:11:31;100484.78;;;19.80
69785;BMP280;14177;51.520;6.764;2023-07-29T00:14:01;100476.16;;;19.78
69785;BMP280;14177;51.520;6.764;2023-07-29T00:16:28;100472.78;;;19.76
69785;BMP280;14177;51.520;6.764;2023-07-29T00:18:55;100471.97;;;19.75
69785;BMP280;14177;51.520;6.764;2023-07-29T00:21:22;100476.38;;;19.75
69785;BMP280;14177;51.520;6.764;2023-07-29T00:23:49;100468.25;;;19.78
69785;BMP280;14177;51.520;6.764;2023-07-29T00:26:16;100465.59;;;19.78
69785;BMP280;14177;51.520;6.764;2023-07-29T00:28:43;100458.44;;;19.80
69785;BMP280;14177;51.520;6.764;2023-07-29T00:31:10;100461.06;;;19.80
69785;BMP280;14177;51.520;6.764;2023-07-29T00:33:37;100456.66;;;19.80
69785;BMP280;14177;51.520;6.764;2023-07-29T00:36:04;100456.53;;;19.82
69785;BMP280;14177;51.520;6.764;2023-07-29T00:38:31;100457.25;;;19.84
69785;BMP280;14177;51.520;6.764;2023-07-29T00:41:02;100450.22;;;19.84
69785;BMP280;14177;51.520;6.764;2023-07-29T00:43:29;100456.31;;;19.85
69785;BMP280;14177;51.520;6.764;2023-07-29T00:45:56;100457.97;;;19.86
69785;BMP280;14177;51.520;6.764;2023-07-29T00:48:25;100456.06;;;19.88
69785;BMP280;14177;51.520;6.764;2023-07-29T00:50:55;100455.13;;;19.89
69785;BMP280;14177;51.520;6.764;2023-07-29T00:53:22;100457.53;;;19.92
69785;BMP280;14177;51.520;6.764;2023-07-29T00:55:49;100456.56;;;19.93
69785;BMP280;14177;51.520;6.764;2023-07-29T00:58:16;100452.91;;;19.95
69785;BMP280;14177;51.520;6.764;2023-07-29T01:00:43;100451.00;;;19.97
69785;BMP280;14177;51.520;6.764;2023-07-29T01:03:11;100449.94;;;20.00
69785;BMP280;14177;51.520;6.764;2023-07-29T01:06:08;100452.47;;;20.01
69785;BMP280;14177;51.520;6.764;2023-07-29T01:09:09;100450.53;;;20.03
69785;BMP280;14177;51.520;6.764;2023-07-29T01:12:09;100446.13;;;20.04
69785;BMP280;14177;51.520;6.764;2023-07-29T01:15:01;100448.75;;;20.04
69785;BMP280;14177;51.520;6.764;2023-07-29T01:17:46;100453.91;;;20.05
69785;BMP280;14177;51.520;6.764;2023-07-29T01:20:16;100443.25;;;20.07
69785;BMP280;14177;51.520;6.764;2023-07-29T01:22:44;100437.97;;;20.07
69785;BMP280;14177;51.520;6.764;2023-07-29T01:25:11;100432.56;;;20.08
69785;BMP280;14177;51.520;6.764;2023-07-29T01:27:40;100420.97;;;20.11
69785;BMP280;14177;51.520;6.764;2023-07-29T01:30:08;100420.84;;;20.12
69785;BMP280;14177;51.520;6.764;2023-07-29T01:32:48;100421.56;;;20.14
69785;BMP280;14177;51.520;6.764;2023-07-29T01:38:36;100421.34;;;20.17
69785;BMP280;14177;51.520;6.764;2023-07-29T01:41:06;100416.91;;;20.18
69785;BMP280;14177;51.520;6.764;2023-07-29T01:43:34;100418.59;;;20.19
69785;BMP280;14177;51.520;6.764;2023-07-29T01:46:06;100432.50;;;20.21
69785;BMP280;14177;51.520;6.764;2023-07-29T01:48:33;100425.31;;;20.23
69785;BMP280;14177;51.520;6.764;2023-07-29T01:51:01;100423.50;;;20.23
69785;BMP280;14177;51.520;6.764;2023-07-29T01:53:28;100416.22;;;20.27
69785;BMP280;14177;51.520;6.764;2023-07-29T01:55:56;100415.13;;;20.29
69785;BMP280;14177;51.520;6.764;2023-07-29T01:58:24;100422.00;;;20.32
69785;BMP280;14177;51.520;6.764;2023-07-29T02:00:51;100422.00;;;20.32
69785;BMP280;14177;51.520;6.764;2023-07-29T02:03:18;100405.09;;;20.34
69785;BMP280;14177;51.520;6.764;2023-07-29T02:05:45;100411.22;;;20.35
69785;BMP280;14177;51.520;6.764;2023-07-29T02:08:12;100398.03;;;20.35
69785;BMP280;14177;51.520;6.764;2023-07-29T02:10:40;100401.50;;;20.35
69785;BMP280;14177;51.520;6.764;2023-07-29T02:13:08;100398.84;;;20.35
69785;BMP280;14177;51.520;6.764;2023-07-29T02:15:35;100398.84;;;20.35
69785;BMP280;14177;51.520;6.764;2023-07-29T02:18:03;100410.25;;;20.36
69785;BMP280;14177;51.520;6.764;2023-07-29T02:20:30;100403.16;;;20.36
69785;BMP280;14177;51.520;6.764;2023-07-29T02:22:57;100395.16;;;20.38
69785;BMP280;14177;51.520;6.764;2023-07-29T02:25:24;100399.47;;;20.39
69785;BMP280;14177;51.520;6.764;2023-07-29T02:27:51;100403.53;;;20.43
69785;BMP280;14177;51.520;6.764;2023-07-29T02:30:18;100406.88;;;20.45
69785;BMP280;14177;51.520;6.764;2023-07-29T02:32:45;100403.19;;;20.47
69785;BMP280;14177;51.520;6.764;2023-07-29T02:35:12;100403.19;;;20.47
69785;BMP280;14177;51.520;6.764;2023-07-29T02:37:39;100404.00;;;20.48
69785;BMP280;14177;51.520;6.764;2023-07-29T02:40:07;100395.13;;;20.49
69785;BMP280;14177;51.520;6.764;2023-07-29T02:42:34;100392.63;;;20.47
69785;BMP280;14177;51.520;6.764;2023-07-29T02:45:01;100397.19;;;20.45
69785;BMP280;14177;51.520;6.764;2023-07-29T02:47:28;100398.97;;;20.45
69785;BMP280;14177;51.520;6.764;2023-07-29T02:49:56;100394.56;;;20.45
69785;BMP280;14177;51.520;6.764;2023-07-29T02:52:23;100399.09;;;20.43
69785;BMP280;14177;51.520;6.764;2023-07-29T02:54:50;100400.28;;;20.39
69785;BMP280;14177;51.520;6.764;2023-07-29T02:57:17;100401.16;;;20.40
69785;BMP280;14177;51.520;6.764;2023-07-29T02:59:44;100422.50;;;20.37
69785;BMP280;14177;51.520;6.764;2023-07-29T03:02:12;100414.91;;;20.32
69785;BMP280;14177;51.520;6.764;2023-07-29T03:04:38;100411.69;;;20.29
69785;BMP280;14177;51.520;6.764;2023-07-29T03:07:05;100412.88;;;20.25
69785;BMP280;14177;51.520;6.764;2023-07-29T03:09:33;100402.56;;;20.22
69785;BMP280;14177;51.520;6.764;2023-07-29T03:12:00;100396.66;;;20.18
69785;BMP280;14177;51.520;6.764;2023-07-29T03:14:28;100416.06;;;20.17
69785;BMP280;14177;51.520;6.764;2023-07-29T03:16:55;100414.28;;;20.18
69785;BMP280;14177;51.520;6.764;2023-07-29T03:19:22;100427.47;;;20.18
69785;BMP280;14177;51.520;6.764;2023-07-29T03:21:49;100421.25;;;20.19
69785;BMP280;14177;51.520;6.764;2023-07-29T03:24:16;100415.97;;;20.19
69785;BMP280;14177;51.520;6.764;2023-07-29T03:26:43;100406.38;;;20.18
69785;BMP280;14177;51.520;6.764;2023-07-29T03:29:12;100401.34;;;20.15
69785;BMP280;14177;51.520;6.764;2023-07-29T03:31:39;100399.75;;;20.12
69785;BMP280;14177;51.520;6.764;2023-07-29T03:34:06;100399.88;;;20.11
69785;BMP280;14177;51.520;6.764;2023-07-29T03:36:34;100397.72;;;20.05
69785;BMP280;14177;51.520;6.764;2023-07-29T03:39:01;100388.53;;;19.98
69785;BMP280;14177;51.520;6.764;2023-07-29T03:41:30;100384.47;;;19.94
69785;BMP280;14177;51.520;6.764;2023-07-29T03:43:57;100397.28;;;19.87
69785;BMP280;14177;51.520;6.764;2023-07-29T03:46:25;100399.63;;;19.79
69785;BMP280;14177;51.520;6.764;2023-07-29T03:48:52;100401.25;;;19.69
69785;BMP280;14177;51.520;6.764;2023-07-29T03:51:19;100399.94;;;19.64
69785;BMP280;14177;51.520;6.764;2023-07-29T03:53:46;100389.84;;;19.58
69785;BMP280;14177;51.520;6.764;2023-07-29T03:56:13;100395.34;;;19.55
69785;BMP280;14177;51.520;6.764;2023-07-29T03:58:40;100408.00;;;19.50
69785;BMP280;14177;51.520;6.764;2023-07-29T04:01:07;100413.50;;;19.47
69785;BMP280;14177;51.520;6.764;2023-07-29T04:03:34;100410.22;;;19.44
69785;BMP280;14177;51.520;6.764;2023-07-29T04:06:01;100399.09;;;19.40
69785;BMP280;14177;51.520;6.764;2023-07-29T04:08:28;100396.91;;;19.34
69785;BMP280;14177;51.520;6.764;2023-07-29T04:10:55;100391.84;;;19.31
69785;BMP280;14177;51.520;6.764;2023-07-29T04:13:22;100394.59;;;19.30
69785;BMP280;14177;51.520;6.764;2023-07-29T04:15:49;100392.19;;;19.27
69785;BMP280;14177;51.520;6.764;2023-07-29T04:18:16;100380.94;;;19.25
69785;BMP280;14177;51.520;6.764;2023-07-29T04:20:46;100383.88;;;19.20
69785;BMP280;14177;51.520;6.764;2023-07-29T04:23:13;100397.16;;;19.19
69785;BMP280;14177;51.520;6.764;2023-07-29T04:25:40;100401.56;;;19.18
69785;BMP280;14177;51.520;6.764;2023-07-29T04:28:07;100410.66;;;19.14
69785;BMP280;14177;51.520;6.764;2023-07-29T04:30:34;100417.78;;;19.12
69785;BMP280;14177;51.520;6.764;2023-07-29T04:33:01;100424.94;;;19.10
69785;BMP280;14177;51.520;6.764;2023-07-29T04:35:28;100427.06;;;19.05
69785;BMP280;14177;51.520;6.764;2023-07-29T04:37:55;100430.75;;;19.03
69785;BMP280;14177;51.520;6.764;2023-07-29T04:40:22;100424.84;;;18.99
69785;BMP280;14177;51.520;6.764;2023-07-29T04:42:51;100434.88;;;18.94
69785;BMP280;14177;51.520;6.764;2023-07-29T04:45:18;100439.63;;;18.89
69785;BMP280;14177;51.520;6.764;2023-07-29T04:47:45;100446.16;;;18.84
69785;BMP280;14177;51.520;6.764;2023-07-29T04:50:12;100464.91;;;18.79
69785;BMP280;14177;51.520;6.764;2023-07-29T04:52:39;100462.91;;;18.70
69785;BMP280;14177;51.520;6.764;2023-07-29T04:55:06;100464.69;;;18.70
69785;BMP280;14177;51.520;6.764;2023-07-29T04:57:33;100445.66;;;18.66
69785;BMP280;14177;51.520;6.764;2023-07-29T05:00:01;100415.03;;;18.65
69785;BMP280;14177;51.520;6.764;2023-07-29T05:02:29;100403.56;;;18.66
69785;BMP280;14177;51.520;6.764;2023-07-29T05:04:56;100394.72;;;18.67
69785;BMP280;14177;51.520;6.764;2023-07-29T05:07:23;100387.66;;;18.68
69785;BMP280;14177;51.520;6.764;2023-07-29T05:09:51;100385.66;;;18.71
69785;BMP280;14177;51.520;6.764;2023-07-29T05:12:18;100392.59;;;18.72
69785;BMP280;14177;51.520;6.764;2023-07-29T05:14:45;100403.13;;;18.72
69785;BMP280;14177;51.520;6.764;2023-07-29T05:17:12;100398.81;;;18.71
69785;BMP280;14177;51.520;6.764;2023-07-29T05:19:39;100405.75;;;18.72
69785;BMP280;14177;51.520;6.764;2023-07-29T05:22:06;100415.56;;;18.70
69785;BMP280;14177;51.520;6.764;2023-07-29T05:24:33;100430.47;;;18.70
69785;BMP280;14177;51.520;6.764;2023-07-29T05:27:00;100445.44;;;18.69
69785;BMP280;14177;51.520;6.764;2023-07-29T05:29:26;100457.84;;;18.67
69785;BMP280;14177;51.520;6.764;2023-07-29T05:31:53;100456.16;;;18.66
69785;BMP280;14177;51.520;6.764;2023-07-29T05:34:20;100455.09;;;18.69
69785;BMP280;14177;51.520;6.764;2023-07-29T05:36:48;100449.97;;;18.67
69785;BMP280;14177;51.520;6.764;2023-07-29T05:39:15;100464.81;;;18.68
69785;BMP280;14177;51.520;6.764;2023-07-29T05:41:42;100477.94;;;18.68
69785;BMP280;14177;51.520;6.764;2023-07-29T05:44:08;100474.25;;;18.71
69785;BMP280;14177;51.520;6.764;2023-07-29T05:46:36;100460.91;;;18.74
69785;BMP280;14177;51.520;6.764;2023-07-29T05:49:04;100470.25;;;18.78
69785;BMP280;14177;51.520;6.764;2023-07-29T05:51:31;100475.53;;;18.78
69785;BMP280;14177;51.520;6.764;2023-07-29T05:53:58;100470.38;;;18.76
69785;BMP280;14177;51.520;6.764;2023-07-29T05:56:25;100464.16;;;18.77
69785;BMP280;14177;51.520;6.764;2023-07-29T05:58:52;100476.38;;;18.78
69785;BMP280;14177;51.520;6.764;2023-07-29T06:01:19;100488.59;;;18.79
69785;BMP280;14177;51.520;6.764;2023-07-29T06:03:48;100495.53;;;18.80
69785;BMP280;14177;51.520;6.764;2023-07-29T06:06:16;100495.63;;;18.79
69785;BMP280;14177;51.520;6.764;2023-07-29T06:08:43;100495.94;;;18.74
69785;BMP280;14177;51.520;6.764;2023-07-29T06:11:10;100494.28;;;18.73
69785;BMP280;14177;51.520;6.764;2023-07-29T06:13:37;100496.69;;;18.76
69785;BMP280;14177;51.520;6.764;2023-07-29T06:16:04;100500.78;;;18.80
69785;BMP280;14177;51.520;6.764;2023-07-29T06:18:31;100500.38;;;18.86
69785;BMP280;14177;51.520;6.764;2023-07-29T06:20:58;100503.28;;;18.94
69785;BMP280;14177;51.520;6.764;2023-07-29T06:23:25;100506.66;;;18.96
69785;BMP280;14177;51.520;6.764;2023-07-29T06:25:51;100514.56;;;18.96
69785;BMP280;14177;51.520;6.764;2023-07-29T06:28:18;100505.50;;;19.00
69785;BMP280;14177;51.520;6.764;2023-07-29T06:30:45;100508.13;;;19.00
69785;BMP280;14177;51.520;6.764;2023-07-29T06:33:12;100501.72;;;19.04
69785;BMP280;14177;51.520;6.764;2023-07-29T06:35:41;100504.13;;;19.07
69785;BMP280;14177;51.520;6.764;2023-07-29T06:38:08;100504.13;;;19.07
69785;BMP280;14177;51.520;6.764;2023-07-29T06:40:35;100504.13;;;19.07
69785;BMP280;14177;51.520;6.764;2023-07-29T06:43:02;100512.88;;;19.08
69785;BMP280;14177;51.520;6.764;2023-07-29T06:45:29;100511.06;;;19.08
69785;BMP280;14177;51.520;6.764;2023-07-29T06:47:56;100517.00;;;19.12
69785;BMP280;14177;51.520;6.764;2023-07-29T06:50:23;100517.63;;;19.15
69785;BMP280;14177;51.520;6.764;2023-07-29T06:52:50;100511.63;;;19.26
69785;BMP280;14177;51.520;6.764;2023-07-29T06:55:17;100507.16;;;19.39
69785;BMP280;14177;51.520;6.764;2023-07-29T06:57:44;100512.94;;;19.44
69785;BMP280;14177;51.520;6.764;2023-07-29T07:00:11;100497.56;;;19.50
69785;BMP280;14177;51.520;6.764;2023-07-29T07:02:38;100495.97;;;19.60
69785;BMP280;14177;51.520;6.764;2023-07-29T07:05:05;100499.59;;;19.70
69785;BMP280;14177;51.520;6.764;2023-07-29T07:07:32;100504.81;;;19.82
69785;BMP280;14177;51.520;6.764;2023-07-29T07:09:59;100501.53;;;19.91
69785;BMP280;14177;51.520;6.764;2023-07-29T07:12:27;100502.31;;;20.04
69785;BMP280;14177;51.520;6.764;2023-07-29T07:14:54;100496.97;;;20.17
69785;BMP280;14177;51.520;6.764;2023-07-29T07:17:21;100506.34;;;20.21
69785;BMP280;14177;51.520;6.764;2023-07-29T07:19:49;100508.53;;;20.27
69785;BMP280;14177;51.520;6.764;2023-07-29T07:22:16;100505.41;;;20.22
69785;BMP280;14177;51.520;6.764;2023-07-29T07:24:44;100517.13;;;20.18
69785;BMP280;14177;51.520;6.764;2023-07-29T07:27:11;100518.19;;;20.15
69785;BMP280;14177;51.520;6.764;2023-07-29T07:29:38;100519.88;;;20.16
69785;BMP280;14177;51.520;6.764;2023-07-29T07:32:05;100524.31;;;20.16
69785;BMP280;14177;51.520;6.764;2023-07-29T07:34:32;100522.41;;;20.18
69785;BMP280;14177;51.520;6.764;2023-07-29T07:37:00;100515.59;;;20.26
69785;BMP280;14177;51.520;6.764;2023-07-29T07:39:27;100514.09;;;20.35
69785;BMP280;14177;51.520;6.764;2023-07-29T07:41:54;100520.25;;;20.57
69785;BMP280;14177;51.520;6.764;2023-07-29T07:44:21;100509.72;;;20.79
69785;BMP280;14177;51.520;6.764;2023-07-29T07:46:48;100507.53;;;20.96
69785;BMP280;14177;51.520;6.764;2023-07-29T07:49:15;100519.06;;;21.06
69785;BMP280;14177;51.520;6.764;2023-07-29T07:51:44;100520.13;;;21.04
69785;BMP280;14177;51.520;6.764;2023-07-29T07:54:11;100518.81;;;21.09
69785;BMP280;14177;51.520;6.764;2023-07-29T07:56:38;100517.34;;;21.16
69785;BMP280;14177;51.520;6.764;2023-07-29T07:59:05;100518.78;;;21.31
69785;BMP280;14177;51.520;6.764;2023-07-29T08:01:37;100515.09;;;21.45
69785;BMP280;14177;51.520;6.764;2023-07-29T08:04:05;100521.19;;;21.45
69785;BMP280;14177;51.520;6.764;2023-07-29T08:06:33;100521.91;;;21.47
69785;BMP280;14177;51.520;6.764;2023-07-29T08:09:01;100517.59;;;21.46
69785;BMP280;14177;51.520;6.764;2023-07-29T08:11:28;100512.91;;;21.61
69785;BMP280;14177;51.520;6.764;2023-07-29T08:13:55;100518.28;;;21.81
69785;BMP280;14177;51.520;6.764;2023-07-29T08:16:22;100509.91;;;22.08
69785;BMP280;14177;51.520;6.764;2023-07-29T08:18:49;100505.41;;;22.19
69785;BMP280;14177;51.520;6.764;2023-07-29T08:21:16;100517.84;;;22.39
69785;BMP280;14177;51.520;6.764;2023-07-29T08:23:43;100508.34;;;22.36
69785;BMP280;14177;51.520;6.764;2023-07-29T08:26:10;100517.47;;;22.43
69785;BMP280;14177;51.520;6.764;2023-07-29T08:28:39;100504.47;;;22.61
69785;BMP280;14177;51.520;6.764;2023-07-29T08:31:06;100514.56;;;22.87
69785;BMP280;14177;51.520;6.764;2023-07-29T08:33:33;100499.94;;;22.93
69785;BMP280;14177;51.520;6.764;2023-07-29T08:36:02;100497.72;;;23.18
69785;BMP280;14177;51.520;6.764;2023-07-29T08:38:29;100497.53;;;23.49
69785;BMP280;14177;51.520;6.764;2023-07-29T08:41:29;100503.63;;;23.80
69785;BMP280;14177;51.520;6.764;2023-07-29T08:44:18;100500.88;;;23.81
69785;BMP280;14177;51.520;6.764;2023-07-29T08:46:47;100501.78;;;23.71
69785;BMP280;14177;51.520;6.764;2023-07-29T08:49:16;100495.22;;;23.65
69785;BMP280;14177;51.520;6.764;2023-07-29T08:51:50;100490.81;;;23.85
69785;BMP280;14177;51.520;6.764;2023-07-29T08:54:19;100501.44;;;24.04
69785;BMP280;14177;51.520;6.764;2023-07-29T08:56:46;100502.00;;;24.26
69785;BMP280;14177;51.520;6.764;2023-07-29T08:59:14;100505.63;;;24.25
69785;BMP280;14177;51.520;6.764;2023-07-29T09:01:43;100508.16;;;23.98
69785;BMP280;14177;51.520;6.764;2023-07-29T09:04:10;100516.97;;;23.69
69785;BMP280;14177;51.520;6.764;2023-07-29T09:06:39;100503.44;;;23.53
69785;BMP280;14177;51.520;6.764;2023-07-29T09:09:08;100503.78;;;23.39
69785;BMP280;14177;51.520;6.764;2023-07-29T09:11:35;100513.41;;;23.31
69785;BMP280;14177;51.520;6.764;2023-07-29T09:14:03;100513.06;;;23.15
69785;BMP280;14177;51.520;6.764;2023-07-29T09:16:30;100519.59;;;23.11
69785;BMP280;14177;51.520;6.764;2023-07-29T09:19:02;100513.59;;;23.09
69785;BMP280;14177;51.520;6.764;2023-07-29T09:21:30;100507.81;;;23.04
69785;BMP280;14177;51.520;6.764;2023-07-29T09:24:03;100522.28;;;23.00
69785;BMP280;14177;51.520;6.764;2023-07-29T09:26:35;100525.00;;;22.89
69785;BMP280;14177;51.520;6.764;2023-07-29T09:29:03;100524.50;;;22.74
69785;BMP280;14177;51.520;6.764;2023-07-29T09:31:30;100526.56;;;22.50
69785;BMP280;14177;51.520;6.764;2023-07-29T09:34:02;100540.47;;;22.32
69785;BMP280;14177;51.520;6.764;2023-07-29T09:36:32;100539.53;;;22.22
69785;BMP280;14177;51.520;6.764;2023-07-29T09:39:00;100534.25;;;22.22
69785;BMP280;14177;51.520;6.764;2023-07-29T09:41:29;100534.81;;;22.36
69785;BMP280;14177;51.520;6.764;2023-07-29T09:44:03;100539.53;;;22.53
69785;BMP280;14177;51.520;6.764;2023-07-29T09:46:37;100529.22;;;22.71
69785;BMP280;14177;51.520;6.764;2023-07-29T09:49:07;100533.91;;;22.88
69785;BMP280;14177;51.520;6.764;2023-07-29T09:51:38;100526.59;;;23.01
69785;BMP280;14177;51.520;6.764;2023-07-29T09:54:07;100512.63;;;23.19
69785;BMP280;14177;51.520;6.764;2023-07-29T09:56:41;100512.41;;;23.32
69785;BMP280;14177;51.520;6.764;2023-07-29T09:59:10;100504.25;;;23.53
69785;BMP280;14177;51.520;6.764;2023-07-29T10:01:39;100509.78;;;23.80
69785;BMP280;14177;51.520;6.764;2023-07-29T10:04:08;100509.56;;;24.02
69785;BMP280;14177;51.520;6.764;2023-07-29T10:06:41;100508.41;;;24.14
69785;BMP280;14177;51.520;6.764;2023-07-29T10:09:11;100510.06;;;24.44
69785;BMP280;14177;51.520;6.764;2023-07-29T10:11:41;100495.34;;;24.87
69785;BMP280;14177;51.520;6.764;2023-07-29T10:14:08;100494.91;;;25.01
69785;BMP280;14177;51.520;6.764;2023-07-29T10:16:40;100501.72;;;25.13
69785;BMP280;14177;51.520;6.764;2023-07-29T10:19:09;100490.34;;;25.30
69785;BMP280;14177;51.520;6.764;2023-07-29T10:21:39;100487.38;;;25.60
69785;BMP280;14177;51.520;6.764;2023-07-29T10:24:14;100486.44;;;25.51
69785;BMP280;14177;51.520;6.764;2023-07-29T10:26:46;100497.47;;;25.56
69785;BMP280;14177;51.520;6.764;2023-07-29T10:29:22;100502.13;;;25.72
69785;BMP280;14177;51.520;6.764;2023-07-29T10:31:53;100504.56;;;25.65
69785;BMP280;14177;51.520;6.764;2023-07-29T10:34:21;100511.66;;;25.47
69785;BMP280;14177;51.520;6.764;2023-07-29T10:36:51;100502.72;;;25.66
69785;BMP280;14177;51.520;6.764;2023-07-29T10:39:19;100499.38;;;25.64
69785;BMP280;14177;51.520;6.764;2023-07-29T10:41:57;100493.56;;;25.51
69785;BMP280;14177;51.520;6.764;2023-07-29T10:47:18;100495.22;;;26.05
69785;BMP280;14177;51.520;6.764;2023-07-29T10:49:52;100498.19;;;25.85
69785;BMP280;14177;51.520;6.764;2023-07-29T10:52:51;100502.28;;;25.43
69785;BMP280;14177;51.520;6.764;2023-07-29T10:57:53;100485.72;;;25.32
69785;BMP280;14177;51.520;6.764;2023-07-29T11:00:31;100474.31;;;25.49
69785;BMP280;14177;51.520;6.764;2023-07-29T11:03:05;100478.25;;;25.45
69785;BMP280;14177;51.520;6.764;2023-07-29T11:05:50;100478.56;;;25.32
69785;BMP280;14177;51.520;6.764;2023-07-29T11:08:25;100479.13;;;25.36
69785;BMP280;14177;51.520;6.764;2023-07-29T11:11:12;100481.03;;;25.43
69785;BMP280;14177;51.520;6.764;2023-07-29T11:13:39;100478.84;;;25.29
69785;BMP280;14177;51.520;6.764;2023-07-29T11:16:06;100482.66;;;25.27
69785;BMP280;14177;51.520;6.764;2023-07-29T11:18:35;100476.69;;;25.15
69785;BMP280;14177;51.520;6.764;2023-07-29T11:21:03;100489.88;;;24.98
69785;BMP280;14177;51.520;6.764;2023-07-29T11:23:34;100484.06;;;24.75
69785;BMP280;14177;51.520;6.764;2023-07-29T11:26:03;100480.19;;;24.70
69785;BMP280;14177;51.520;6.764;2023-07-29T11:28:38;100489.53;;;24.74
69785;BMP280;14177;51.520;6.764;2023-07-29T11:31:05;100481.66;;;24.91
69785;BMP280;14177;51.520;6.764;2023-07-29T11:33:32;100493.22;;;25.00
69785;BMP280;14177;51.520;6.764;2023-07-29T11:35:59;100486.34;;;25.07
69785;BMP280;14177;51.520;6.764;2023-07-29T11:38:26;100483.66;;;25.26
69785;BMP280;14177;51.520;6.764;2023-07-29T11:41:01;100481.28;;;25.50
69785;BMP280;14177;51.520;6.764;2023-07-29T11:43:35;100476.69;;;25.42
69785;BMP280;14177;51.520;6.764;2023-07-29T11:46:03;100467.59;;;25.45
69785;BMP280;14177;51.520;6.764;2023-07-29T11:48:33;100468.72;;;25.42
69785;BMP280;14177;51.520;6.764;2023-07-29T11:51:02;100457.47;;;25.75
69785;BMP280;14177;51.520;6.764;2023-07-29T11:53:30;100464.25;;;25.87
69785;BMP280;14177;51.520;6.764;2023-07-29T11:55:58;100461.44;;;25.89
69785;BMP280;14177;51.520;6.764;2023-07-29T11:58:26;100469.50;;;25.97
69785;BMP280;14177;51.520;6.764;2023-07-29T12:00:53;100466.25;;;25.85
69785;BMP280;14177;51.520;6.764;2023-07-29T12:03:21;100471.09;;;25.63
69785;BMP280;14177;51.520;6.764;2023-07-29T12:05:49;100469.44;;;25.62
69785;BMP280;14177;51.520;6.764;2023-07-29T12:08:16;100464.06;;;25.71
69785;BMP280;14177;51.520;6.764;2023-07-29T12:10:44;100465.97;;;25.79
69785;BMP280;14177;51.520;6.764;2023-07-29T12:13:12;100471.25;;;25.88
69785;BMP280;14177;51.520;6.764;2023-07-29T12:15:39;100464.41;;;25.59
69785;BMP280;14177;51.520;6.764;2023-07-29T12:18:07;100449.78;;;25.28
69785;BMP280;14177;51.520;6.764;2023-07-29T12:20:34;100450.78;;;25.17
69785;BMP280;14177;51.520;6.764;2023-07-29T12:23:01;100464.34;;;25.24
69785;BMP280;14177;51.520;6.764;2023-07-29T12:25:30;100465.25;;;25.42
69785;BMP280;14177;51.520;6.764;2023-07-29T12:28:10;100465.25;;;25.59
69785;BMP280;14177;51.520;6.764;2023-07-29T12:30:43;100467.22;;;26.01
69785;BMP280;14177;51.520;6.764;2023-07-29T12:33:10;100473.94;;;26.05
69785;BMP280;14177;51.520;6.764;2023-07-29T12:35:38;100474.59;;;25.90
69785;BMP280;14177;51.520;6.764;2023-07-29T12:38:05;100471.69;;;25.84
69785;BMP280;14177;51.520;6.764;2023-07-29T12:40:32;100476.13;;;25.66
69785;BMP280;14177;51.520;6.764;2023-07-29T12:42:59;100459.94;;;25.59
69785;BMP280;14177;51.520;6.764;2023-07-29T12:45:27;100462.75;;;25.58
69785;BMP280;14177;51.520;6.764;2023-07-29T12:47:56;100445.09;;;25.57
69785;BMP280;14177;51.520;6.764;2023-07-29T12:50:23;100460.44;;;25.45
69785;BMP280;14177;51.520;6.764;2023-07-29T12:52:50;100468.19;;;25.39
69785;BMP280;14177;51.520;6.764;2023-07-29T12:55:17;100456.97;;;25.45
69785;BMP280;14177;51.520;6.764;2023-07-29T12:57:50;100443.00;;;25.60
69785;BMP280;14177;51.520;6.764;2023-07-29T13:00:18;100446.97;;;25.74
69785;BMP280;14177;51.520;6.764;2023-07-29T13:02:45;100436.66;;;26.05
69785;BMP280;14177;51.520;6.764;2023-07-29T13:05:13;100440.88;;;26.33
69785;BMP280;14177;51.520;6.764;2023-07-29T13:07:41;100445.00;;;26.45
69785;BMP280;14177;51.520;6.764;2023-07-29T13:10:10;100452.13;;;26.27
69785;BMP280;14177;51.520;6.764;2023-07-29T13:12:37;100452.78;;;26.04
69785;BMP280;14177;51.520;6.764;2023-07-29T13:15:06;100446.34;;;25.80
69785;BMP280;14177;51.520;6.764;2023-07-29T13:17:34;100452.28;;;25.56
69785;BMP280;14177;51.520;6.764;2023-07-29T13:20:01;100457.56;;;25.39
69785;BMP280;14177;51.520;6.764;2023-07-29T13:22:28;100457.69;;;25.10
69785;BMP280;14177;51.520;6.764;2023-07-29T13:24:55;100450.72;;;25.00
69785;BMP280;14177;51.520;6.764;2023-07-29T13:27:22;100447.94;;;24.92
69785;BMP280;14177;51.520;6.764;2023-07-29T13:29:50;100471.16;;;24.90
69785;BMP280;14177;51.520;6.764;2023-07-29T13:32:18;100459.03;;;24.78
69785;BMP280;14177;51.520;6.764;2023-07-29T13:34:45;100465.13;;;24.61
69785;BMP280;14177;51.520;6.764;2023-07-29T13:37:12;100471.66;;;24.48
69785;BMP280;14177;51.520;6.764;2023-07-29T13:39:39;100484.81;;;24.30
69785;BMP280;14177;51.520;6.764;2023-07-29T13:42:06;100503.53;;;24.00
69785;BMP280;14177;51.520;6.764;2023-07-29T13:44:33;100524.66;;;23.62
69785;BMP280;14177;51.520;6.764;2023-07-29T13:47:00;100543.09;;;23.25
69785;BMP280;14177;51.520;6.764;2023-07-29T13:49:27;100560.59;;;22.96
69785;BMP280;14177;51.520;6.764;2023-07-29T13:51:54;100559.03;;;22.52
69785;BMP280;14177;51.520;6.764;2023-07-29T13:54:21;100554.25;;;22.04
69785;BMP280;14177;51.520;6.764;2023-07-29T13:56:48;100561.53;;;21.58
69785;BMP280;14177;51.520;6.764;2023-07-29T13:59:15;100576.91;;;21.31
69785;BMP280;14177;51.520;6.764;2023-07-29T14:01:42;100585.31;;;21.03
69785;BMP280;14177;51.520;6.764;2023-07-29T14:04:09;100602.03;;;20.81
69785;BMP280;14177;51.520;6.764;2023-07-29T14:06:36;100614.16;;;20.60
69785;BMP280;14177;51.520;6.764;2023-07-29T14:09:11;100620.25;;;20.26
69785;BMP280;14177;51.520;6.764;2023-07-29T14:11:39;100606.84;;;19.93
69785;BMP280;14177;51.520;6.764;2023-07-29T14:14:08;100593.50;;;19.71